createdAt,value
2018-03-23T00:01:02.915Z,5.40
2018-03-23T00:03:30.382Z,5.40
2018-03-23T00:05:58.616Z,5.40
2018-03-23T00:08:26.099Z,5.40
2018-03-23T00:10:53.586Z,5.40
2018-03-23T00:13:21.043Z,5.40
2018-03-23T00:15:48.519Z,5.40
2018-03-23T00:18:15.974Z,5.50
2018-03-23T00:20:43.540Z,5.50
2018-03-23T00:23:11.046Z,5.50
2018-03-23T00:25:38.545Z,5.50
2018-03-23T00:28:06.000Z,5.50
2018-03-23T00:30:33.512Z,5.60
2018-03-23T00:33:00.982Z,5.60
2018-03-23T00:35:28.454Z,5.60
2018-03-23T00:37:55.957Z,5.60
2018-03-23T00:40:23.419Z,5.60
2018-03-23T00:42:50.884Z,5.60
2018-03-23T00:45:18.368Z,5.60
2018-03-23T00:47:46.613Z,5.60
2018-03-23T00:50:14.094Z,5.60
2018-03-23T00:52:41.562Z,5.60
2018-03-23T00:55:09.766Z,5.60
2018-03-23T00:57:37.237Z,5.60
2018-03-23T01:00:04.699Z,5.60
2018-03-23T01:02:32.181Z,5.60
2018-03-23T01:04:59.664Z,5.60
2018-03-23T01:07:27.154Z,5.60
2018-03-23T01:09:54.603Z,5.60
2018-03-23T01:12:22.082Z,5.70
2018-03-23T01:14:49.553Z,5.60
2018-03-23T01:17:17.022Z,5.70
2018-03-23T01:19:44.499Z,5.60
2018-03-23T01:22:14.944Z,5.70
2018-03-23T01:24:42.420Z,5.60
2018-03-23T01:27:09.915Z,5.70
2018-03-23T01:29:37.397Z,5.70
2018-03-23T01:32:04.876Z,5.70
2018-03-23T01:34:32.355Z,5.70
2018-03-23T01:36:59.876Z,5.70
2018-03-23T01:39:27.299Z,5.70
2018-03-23T01:41:54.759Z,5.60
2018-03-23T01:44:22.237Z,5.60
2018-03-23T01:46:49.708Z,5.60
2018-03-23T01:49:17.984Z,5.70
2018-03-23T01:51:45.428Z,5.70
2018-03-23T01:54:12.905Z,5.70
2018-03-23T01:56:40.371Z,5.70
2018-03-23T01:59:07.863Z,5.70
2018-03-23T02:01:35.334Z,5.60
2018-03-23T02:04:02.795Z,5.70
2018-03-23T02:06:30.343Z,5.70
2018-03-23T02:08:57.807Z,5.70
2018-03-23T02:11:25.264Z,5.70
2018-03-23T02:13:52.722Z,5.70
2018-03-23T02:16:20.266Z,5.70
2018-03-23T02:18:47.734Z,5.70
2018-03-23T02:21:15.192Z,5.70
2018-03-23T02:23:42.722Z,5.70
2018-03-23T02:26:10.177Z,5.70
2018-03-23T02:28:37.646Z,5.70
2018-03-23T02:31:05.301Z,5.80
2018-03-23T02:33:34.295Z,5.80
2018-03-23T02:36:01.755Z,5.80
2018-03-23T02:38:29.242Z,5.70
2018-03-23T02:40:56.702Z,5.70
2018-03-23T02:43:24.161Z,5.70
2018-03-23T02:45:51.617Z,5.70
2018-03-23T02:48:19.094Z,5.70
2018-03-23T02:50:46.559Z,5.70
2018-03-23T02:53:14.015Z,5.80
2018-03-23T02:55:41.504Z,5.80
2018-03-23T02:58:08.966Z,5.70
2018-03-23T03:00:36.440Z,5.70
2018-03-23T03:03:03.929Z,5.70
2018-03-23T03:05:32.161Z,5.70
2018-03-23T03:07:59.627Z,5.70
2018-03-23T03:10:27.188Z,5.70
2018-03-23T03:12:54.657Z,5.70
2018-03-23T03:15:22.132Z,5.70
2018-03-23T03:17:50.360Z,5.70
2018-03-23T03:20:17.892Z,5.70
2018-03-23T03:22:45.356Z,5.70
2018-03-23T03:25:12.859Z,5.70
2018-03-23T03:27:40.321Z,5.70
2018-03-23T03:30:07.805Z,5.70
2018-03-23T03:32:36.040Z,5.80
2018-03-23T03:35:03.516Z,5.70
2018-03-23T03:37:31.038Z,5.70
2018-03-23T03:39:58.531Z,5.80
2018-03-23T03:42:25.991Z,5.80
2018-03-23T03:44:53.452Z,5.70
2018-03-23T03:47:21.698Z,5.70
2018-03-23T03:49:49.167Z,5.70
2018-03-23T03:52:16.630Z,5.70
2018-03-23T03:54:44.093Z,5.70
2018-03-23T03:57:11.566Z,5.70
2018-03-23T03:59:39.032Z,5.70
2018-03-23T04:02:06.577Z,5.80
2018-03-23T04:04:34.808Z,5.70
2018-03-23T04:07:02.294Z,5.70
2018-03-23T04:09:29.763Z,5.70
2018-03-23T04:11:57.241Z,5.70
2018-03-23T04:14:24.713Z,5.80
2018-03-23T04:16:52.195Z,5.80
2018-03-23T04:19:19.659Z,5.70
2018-03-23T04:21:47.216Z,5.70
2018-03-23T04:24:14.680Z,5.70
2018-03-23T04:26:42.169Z,5.70
2018-03-23T04:29:09.628Z,5.70
2018-03-23T04:31:37.086Z,5.70
2018-03-23T04:34:04.570Z,5.70
2018-03-23T04:36:32.036Z,5.70
2018-03-23T04:38:59.527Z,5.70
2018-03-23T04:41:26.979Z,5.70
2018-03-23T04:43:54.447Z,5.70
2018-03-23T04:46:21.920Z,5.70
2018-03-23T04:48:49.388Z,5.70
2018-03-23T04:51:16.869Z,5.70
2018-03-23T04:53:44.339Z,5.70
2018-03-23T04:56:11.803Z,5.70
2018-03-23T04:58:39.287Z,5.80
2018-03-23T05:01:06.755Z,5.80
2018-03-23T05:03:34.236Z,5.70
2018-03-23T05:06:01.695Z,5.80
2018-03-23T05:08:29.164Z,5.80
2018-03-23T05:10:56.633Z,5.80
2018-03-23T05:13:24.096Z,5.80
2018-03-23T05:15:51.566Z,5.80
2018-03-23T05:18:19.041Z,5.80
2018-03-23T05:20:46.525Z,5.80
2018-03-23T05:23:13.993Z,5.80
2018-03-23T05:25:41.503Z,5.80
2018-03-23T05:28:09.044Z,5.80
2018-03-23T05:30:36.611Z,5.80
2018-03-23T05:33:04.114Z,5.80
2018-03-23T05:35:32.393Z,5.80
2018-03-23T05:37:59.907Z,5.80
2018-03-23T05:40:27.432Z,5.80
2018-03-23T05:42:55.053Z,5.80
2018-03-23T05:45:22.605Z,5.80
2018-03-23T05:47:50.076Z,5.80
2018-03-23T05:50:17.724Z,5.80
2018-03-23T05:52:45.239Z,5.80
2018-03-23T05:55:12.888Z,5.80
2018-03-23T05:57:40.452Z,5.80
2018-03-23T06:00:07.970Z,5.80
2018-03-23T06:02:35.471Z,5.80
2018-03-23T06:05:03.029Z,5.90
2018-03-23T06:07:30.530Z,5.90
2018-03-23T06:09:58.120Z,5.90
2018-03-23T06:12:25.699Z,5.90
2018-03-23T06:14:53.286Z,5.90
2018-03-23T06:17:21.705Z,5.90
2018-03-23T06:19:49.247Z,5.80
2018-03-23T06:22:16.761Z,5.80
2018-03-23T06:24:44.331Z,5.90
2018-03-23T06:27:11.868Z,5.90
2018-03-23T06:29:39.463Z,5.90
2018-03-23T06:32:07.104Z,5.90
2018-03-23T06:34:34.631Z,6.00
2018-03-23T06:37:02.234Z,6.00
2018-03-23T06:39:29.820Z,6.00
2018-03-23T06:41:57.380Z,6.00
2018-03-23T06:44:24.904Z,6.00
2018-03-23T06:46:52.449Z,6.00
2018-03-23T06:49:20.054Z,6.00
2018-03-23T06:51:47.633Z,6.00
2018-03-23T06:54:15.197Z,6.10
2018-03-23T06:56:42.746Z,6.10
2018-03-23T06:59:11.036Z,6.20
2018-03-23T07:01:38.569Z,6.20
2018-03-23T07:04:06.138Z,6.20
2018-03-23T07:06:33.692Z,6.20
2018-03-23T07:09:01.236Z,6.30
2018-03-23T07:11:28.796Z,6.30
2018-03-23T07:13:56.520Z,6.30
2018-03-23T07:16:24.091Z,6.30
2018-03-23T07:18:51.616Z,6.30
2018-03-23T07:21:19.216Z,6.30
2018-03-23T07:23:46.870Z,6.40
2018-03-23T07:26:14.480Z,6.40
2018-03-23T07:28:42.074Z,6.40
2018-03-23T07:31:09.633Z,6.40
2018-03-23T07:33:37.919Z,6.50
2018-03-23T07:36:05.464Z,6.50
2018-03-23T07:38:33.868Z,6.50
2018-03-23T07:41:01.440Z,6.50
2018-03-23T07:43:29.034Z,6.60
2018-03-23T07:45:56.595Z,6.60
2018-03-23T07:48:24.179Z,6.60
2018-03-23T07:50:51.975Z,6.60
2018-03-23T07:53:19.579Z,6.60
2018-03-23T07:55:47.100Z,6.60
2018-03-23T07:58:14.649Z,6.60
2018-03-23T08:00:42.925Z,6.70
2018-03-23T08:03:10.455Z,6.70
2018-03-23T08:05:38.059Z,6.70
2018-03-23T08:08:05.585Z,6.70
2018-03-23T08:10:33.098Z,6.70
2018-03-23T08:13:00.607Z,6.70
2018-03-23T08:15:28.162Z,6.70
2018-03-23T08:17:55.768Z,6.80
2018-03-23T08:20:23.294Z,6.80
2018-03-23T08:22:50.840Z,6.80
2018-03-23T08:25:18.409Z,6.80
2018-03-23T08:27:46.280Z,6.80
2018-03-23T08:30:13.862Z,6.90
2018-03-23T08:32:41.408Z,6.90
2018-03-23T08:35:09.006Z,7.00
2018-03-23T08:37:36.562Z,7.00
2018-03-23T08:40:04.156Z,7.00
2018-03-23T08:42:31.656Z,7.10
2018-03-23T08:44:59.229Z,7.10
2018-03-23T08:47:26.747Z,7.10
2018-03-23T08:49:54.343Z,7.20
2018-03-23T08:52:21.968Z,7.20
2018-03-23T08:54:49.560Z,7.20
2018-03-23T08:57:17.094Z,7.30
2018-03-23T08:59:44.663Z,7.30
2018-03-23T09:02:13.054Z,7.30
2018-03-23T09:04:41.334Z,7.40
2018-03-23T09:07:08.860Z,7.40
2018-03-23T09:09:36.551Z,7.40
2018-03-23T09:12:04.268Z,7.50
2018-03-23T09:14:31.799Z,7.40
2018-03-23T09:17:00.102Z,7.50
2018-03-23T09:19:27.619Z,7.40
2018-03-23T09:21:55.128Z,7.50
2018-03-23T09:24:22.635Z,7.50
2018-03-23T09:26:50.286Z,7.50
2018-03-23T09:29:17.777Z,7.50
2018-03-23T09:31:45.321Z,7.50
2018-03-23T09:34:13.636Z,7.50
2018-03-23T09:36:41.172Z,7.50
2018-03-23T09:39:09.502Z,7.60
2018-03-23T09:41:37.916Z,7.60
2018-03-23T09:44:05.475Z,7.60
2018-03-23T09:46:33.783Z,7.70
2018-03-23T09:49:02.095Z,7.70
2018-03-23T09:51:29.590Z,7.70
2018-03-23T09:53:57.134Z,7.70
2018-03-23T09:56:25.363Z,7.70
2018-03-23T09:58:52.893Z,7.70
2018-03-23T10:01:20.387Z,7.80
2018-03-23T10:03:47.904Z,7.80
2018-03-23T10:06:15.444Z,7.90
2018-03-23T10:08:43.747Z,8.00
2018-03-23T10:11:11.264Z,8.00
2018-03-23T10:13:38.774Z,8.10
2018-03-23T10:16:06.336Z,8.10
2018-03-23T10:18:33.812Z,8.20
2018-03-23T10:21:01.302Z,8.20
2018-03-23T10:23:28.751Z,8.20
2018-03-23T10:25:56.235Z,8.20
2018-03-23T10:28:24.480Z,8.30
2018-03-23T10:30:51.948Z,8.20
2018-03-23T10:33:19.491Z,8.30
2018-03-23T10:35:46.960Z,8.20
2018-03-23T10:38:14.436Z,8.30
2018-03-23T10:40:42.720Z,8.50
2018-03-23T10:43:10.182Z,8.40
2018-03-23T10:45:37.752Z,8.50
2018-03-23T10:48:05.235Z,8.60
2018-03-23T10:50:32.712Z,8.70
2018-03-23T10:53:00.200Z,8.80
2018-03-23T10:55:28.456Z,8.90
2018-03-23T10:57:55.956Z,8.90
2018-03-23T11:00:42.156Z,8.90
2018-03-23T11:03:09.628Z,9.00
2018-03-23T11:05:37.083Z,9.00
2018-03-23T11:08:04.601Z,9.10
2018-03-23T11:10:32.828Z,9.10
2018-03-23T11:13:00.297Z,9.10
2018-03-23T11:15:27.768Z,9.10
2018-03-23T11:17:55.246Z,9.10
2018-03-23T11:20:22.707Z,9.00
2018-03-23T11:22:50.932Z,9.00
2018-03-23T11:25:18.431Z,9.00
2018-03-23T11:27:45.928Z,9.00
2018-03-23T11:30:13.421Z,9.00
2018-03-23T11:32:40.887Z,9.00
2018-03-23T11:35:08.347Z,9.10
2018-03-23T11:37:36.589Z,9.20
2018-03-23T11:40:04.822Z,9.30
2018-03-23T11:42:33.044Z,9.30
2018-03-23T11:45:00.530Z,9.30
2018-03-23T11:47:28.016Z,9.30
2018-03-23T11:49:55.495Z,9.30
2018-03-23T11:52:22.964Z,9.20
2018-03-23T11:54:50.439Z,9.20
2018-03-23T11:57:17.905Z,9.20
2018-03-23T11:59:45.379Z,9.30
2018-03-23T12:02:13.604Z,9.30
2018-03-23T12:04:41.060Z,9.30
2018-03-23T12:07:08.702Z,9.30
2018-03-23T12:09:36.157Z,9.30
2018-03-23T12:12:03.687Z,9.30
2018-03-23T12:14:31.157Z,9.40
2018-03-23T12:16:58.644Z,9.40
2018-03-23T12:19:26.103Z,9.40
2018-03-23T12:21:53.582Z,9.40
2018-03-23T12:24:21.055Z,9.40
2018-03-23T12:26:48.536Z,9.40
2018-03-23T12:29:15.995Z,9.40
2018-03-23T12:31:43.480Z,9.40
2018-03-23T12:34:10.951Z,9.40
2018-03-23T12:36:38.431Z,9.40
2018-03-23T12:39:05.905Z,9.50
2018-03-23T12:41:33.372Z,9.50
2018-03-23T12:44:01.615Z,9.50
2018-03-23T12:46:29.863Z,9.60
2018-03-23T12:48:57.340Z,9.60
2018-03-23T12:51:24.823Z,9.70
2018-03-23T12:53:52.297Z,9.70
2018-03-23T12:56:19.760Z,9.80
2018-03-23T12:58:47.248Z,9.90
2018-03-23T13:01:14.704Z,10.00
2018-03-23T13:03:42.203Z,10.00
2018-03-23T13:06:09.671Z,10.10
2018-03-23T13:08:37.302Z,10.10
2018-03-23T13:11:04.803Z,10.20
2018-03-23T13:13:32.299Z,10.10
2018-03-23T13:15:59.764Z,10.20
2018-03-23T13:18:27.239Z,10.20
2018-03-23T13:20:54.708Z,10.20
2018-03-23T13:23:22.176Z,10.20
2018-03-23T13:25:49.727Z,10.20
2018-03-23T13:28:17.191Z,10.20
2018-03-23T13:30:45.431Z,10.20
2018-03-23T13:33:12.945Z,10.20
2018-03-23T13:35:40.431Z,10.10
2018-03-23T13:38:07.912Z,10.10
2018-03-23T13:40:35.408Z,10.10
2018-03-23T13:43:03.641Z,10.00
2018-03-23T13:45:31.113Z,9.90
2018-03-23T13:47:58.599Z,9.90
2018-03-23T13:50:26.062Z,9.90
2018-03-23T13:52:54.373Z,10.00
2018-03-23T13:55:21.852Z,10.00
2018-03-23T13:57:49.472Z,9.90
2018-03-23T14:00:22.516Z,9.90
2018-03-23T14:02:49.985Z,9.80
2018-03-23T14:05:17.452Z,9.80
2018-03-23T14:07:44.919Z,9.80
2018-03-23T14:10:12.376Z,9.70
2018-03-23T14:12:39.858Z,9.70
2018-03-23T14:15:07.312Z,9.70
2018-03-23T14:17:34.788Z,9.60
2018-03-23T14:20:02.252Z,9.60
2018-03-23T14:22:29.717Z,9.60
2018-03-23T14:24:57.185Z,9.60
2018-03-23T14:27:24.652Z,9.50
2018-03-23T14:29:52.142Z,9.50
2018-03-23T14:32:19.614Z,9.50
2018-03-23T14:34:47.094Z,9.40
2018-03-23T14:37:14.552Z,9.40
2018-03-23T14:39:42.020Z,9.30
2018-03-23T14:42:09.483Z,9.30
2018-03-23T14:44:36.958Z,9.30
2018-03-23T14:47:05.179Z,9.30
2018-03-23T14:49:32.650Z,9.20
2018-03-23T14:52:00.110Z,9.30
2018-03-23T14:54:27.577Z,9.30
2018-03-23T14:56:55.051Z,9.30
2018-03-23T14:59:22.540Z,9.30
2018-03-23T15:01:49.992Z,9.30
2018-03-23T15:04:17.500Z,9.30
2018-03-23T15:06:44.980Z,9.30
2018-03-23T15:09:13.199Z,9.30
2018-03-23T15:11:40.704Z,9.30
2018-03-23T15:14:15.948Z,9.30
2018-03-23T15:16:44.203Z,9.30
2018-03-23T15:19:11.653Z,9.30
2018-03-23T15:21:39.126Z,9.30
2018-03-23T15:24:06.586Z,9.30
2018-03-23T15:26:34.057Z,9.30
2018-03-23T15:29:01.523Z,9.30
2018-03-23T15:31:29.094Z,9.30
2018-03-23T15:33:56.560Z,9.20
2018-03-23T15:36:24.027Z,9.20
2018-03-23T15:38:51.520Z,9.20
2018-03-23T15:41:19.001Z,9.20
2018-03-23T15:43:46.508Z,9.20
2018-03-23T15:46:13.993Z,9.20
2018-03-23T15:48:41.460Z,9.10
2018-03-23T15:51:08.934Z,9.10
2018-03-23T15:53:36.395Z,9.10
2018-03-23T15:56:03.855Z,9.10
2018-03-23T15:58:31.316Z,9.00
2018-03-23T16:00:58.805Z,9.00
2018-03-23T16:03:26.304Z,9.00
2018-03-23T16:05:53.783Z,9.00
2018-03-23T16:08:22.036Z,8.90
2018-03-23T16:10:49.498Z,8.90
2018-03-23T16:13:17.032Z,8.90
2018-03-23T16:15:44.471Z,8.90
2018-03-23T16:18:11.951Z,8.90
2018-03-23T16:20:39.428Z,8.90
2018-03-23T16:23:07.672Z,8.90
2018-03-23T16:25:35.921Z,8.90
2018-03-23T16:28:03.427Z,8.80
2018-03-23T16:30:31.307Z,8.80
2018-03-23T16:32:58.786Z,8.80
2018-03-23T16:35:26.259Z,8.80
2018-03-23T16:37:53.752Z,8.80
2018-03-23T16:40:21.218Z,8.80
2018-03-23T16:42:48.712Z,8.80
2018-03-23T16:45:16.188Z,8.80
2018-03-23T16:47:43.663Z,8.70
2018-03-23T16:50:11.141Z,8.70
2018-03-23T16:52:38.636Z,8.70
2018-03-23T16:55:06.249Z,8.70
2018-03-23T16:57:33.907Z,8.70
2018-03-23T17:00:01.396Z,8.70
2018-03-23T17:02:28.872Z,8.70
2018-03-23T17:04:56.352Z,8.70
2018-03-23T17:07:23.853Z,8.70
2018-03-23T17:09:51.329Z,8.70
2018-03-23T17:12:19.576Z,8.60
2018-03-23T17:14:47.065Z,8.60
2018-03-23T17:17:14.553Z,8.60
2018-03-23T17:19:42.062Z,8.60
2018-03-23T17:22:09.549Z,8.60
2018-03-23T17:24:37.804Z,8.60
2018-03-23T17:27:05.308Z,8.50
2018-03-23T17:29:32.797Z,8.50
2018-03-23T17:32:00.292Z,8.50
2018-03-23T17:34:27.757Z,8.50
2018-03-23T17:36:55.988Z,8.40
2018-03-23T17:39:23.478Z,8.40
2018-03-23T17:41:50.947Z,8.40
2018-03-23T17:44:18.415Z,8.40
2018-03-23T17:46:45.982Z,8.40
2018-03-23T17:49:13.440Z,8.40
2018-03-23T17:51:40.946Z,8.30
2018-03-23T17:54:08.503Z,8.30
2018-03-23T17:56:35.980Z,8.30
2018-03-23T17:59:03.469Z,8.30
2018-03-23T18:01:30.941Z,8.30
2018-03-23T18:03:58.412Z,8.30
2018-03-23T18:06:25.888Z,8.30
2018-03-23T18:08:53.349Z,8.30
2018-03-23T18:11:20.831Z,8.30
2018-03-23T18:13:49.059Z,8.30
2018-03-23T18:16:17.350Z,8.30
2018-03-23T18:18:44.819Z,8.30
2018-03-23T18:21:12.299Z,8.30
2018-03-23T18:23:39.759Z,8.30
2018-03-23T18:26:07.229Z,8.30
2018-03-23T18:28:34.720Z,8.30
2018-03-23T18:31:02.190Z,8.30
2018-03-23T18:33:29.664Z,8.20
2018-03-23T18:35:57.123Z,8.20
2018-03-23T18:38:25.509Z,8.20
2018-03-23T18:40:53.007Z,8.30
2018-03-23T18:43:20.495Z,8.20
2018-03-23T18:45:47.971Z,8.20
2018-03-23T18:48:15.457Z,8.20
2018-03-23T18:50:42.948Z,8.20
2018-03-23T18:53:10.434Z,8.20
2018-03-23T18:55:37.912Z,8.20
2018-03-23T18:58:05.398Z,8.20
2018-03-23T19:00:32.863Z,8.20
2018-03-23T19:03:00.359Z,8.20
2018-03-23T19:05:27.828Z,8.20
2018-03-23T19:07:55.303Z,8.20
2018-03-23T19:10:22.764Z,8.20
2018-03-23T19:12:50.263Z,8.20
2018-03-23T19:15:17.749Z,8.20
2018-03-23T19:17:46.015Z,8.20
2018-03-23T19:20:13.497Z,8.20
2018-03-23T19:22:40.975Z,8.20
2018-03-23T19:25:08.482Z,8.20
2018-03-23T19:27:35.963Z,8.20
2018-03-23T19:30:03.462Z,8.20
2018-03-23T19:32:30.933Z,8.20
2018-03-23T19:34:58.412Z,8.20
2018-03-23T19:37:25.881Z,8.20
2018-03-23T19:39:53.373Z,8.20
2018-03-23T19:42:20.840Z,8.20
2018-03-23T19:44:48.329Z,8.20
2018-03-23T19:47:15.798Z,8.20
2018-03-23T19:49:43.281Z,8.20
2018-03-23T19:52:10.760Z,8.20
2018-03-23T19:54:38.252Z,8.20
2018-03-23T19:57:05.785Z,8.10
2018-03-23T19:59:33.224Z,8.10
2018-03-23T20:02:02.111Z,8.10
2018-03-23T20:04:29.637Z,8.10
2018-03-23T20:06:57.112Z,8.10
2018-03-23T20:09:24.587Z,8.10
2018-03-23T20:11:52.924Z,8.10
2018-03-23T20:14:20.415Z,8.00
2018-03-23T20:16:47.896Z,8.00
2018-03-23T20:19:15.361Z,8.00
2018-03-23T20:21:42.850Z,8.00
2018-03-23T20:24:29.771Z,8.00
2018-03-23T20:27:02.822Z,8.00
2018-03-23T20:29:30.303Z,7.90
2018-03-23T20:32:03.444Z,7.90
2018-03-23T20:34:30.908Z,7.90
2018-03-23T20:36:58.460Z,7.90
2018-03-23T20:39:25.927Z,7.90
2018-03-23T20:41:53.408Z,7.90
2018-03-23T20:44:20.888Z,7.90
2018-03-23T20:46:48.366Z,8.40
2018-03-23T20:49:16.664Z,8.20
2018-03-23T20:51:44.153Z,8.10
2018-03-23T20:54:11.609Z,8.00
2018-03-23T20:56:39.092Z,8.00
2018-03-23T20:59:06.560Z,7.90
2018-03-23T21:01:34.057Z,7.90
2018-03-23T21:04:02.290Z,7.90
2018-03-23T21:06:29.770Z,7.80
2018-03-23T21:08:57.262Z,7.80
2018-03-23T21:11:24.741Z,7.80
2018-03-23T21:13:52.244Z,7.80
2018-03-23T21:16:19.770Z,7.80
2018-03-23T21:18:47.242Z,7.70
2018-03-23T21:21:14.698Z,7.80
2018-03-23T21:23:42.178Z,7.70
2018-03-23T21:26:09.646Z,7.70
2018-03-23T21:28:37.118Z,7.70
2018-03-23T21:31:04.592Z,7.70
2018-03-23T21:33:32.872Z,7.70
2018-03-23T21:36:00.358Z,7.70
2018-03-23T21:38:27.935Z,7.70
2018-03-23T21:40:55.400Z,7.70
2018-03-23T21:43:22.880Z,7.70
2018-03-23T21:45:50.355Z,7.70
2018-03-23T21:48:17.842Z,7.60
2018-03-23T21:50:45.304Z,7.70
2018-03-23T21:53:12.780Z,7.60
2018-03-23T21:55:40.250Z,7.60
2018-03-23T21:58:08.491Z,7.60
2018-03-23T22:00:35.967Z,7.60
2018-03-23T22:03:03.428Z,7.60
2018-03-23T22:05:31.420Z,7.60
2018-03-23T22:07:58.879Z,7.50
2018-03-23T22:10:26.362Z,7.50
2018-03-23T22:12:53.846Z,7.50
2018-03-23T22:15:21.311Z,7.50
2018-03-23T22:17:48.779Z,7.50
2018-03-23T22:20:16.248Z,7.50
2018-03-23T22:22:43.716Z,7.50
2018-03-23T22:25:11.196Z,7.50
2018-03-23T22:27:38.668Z,7.50
2018-03-23T22:30:06.166Z,7.50
2018-03-23T22:32:33.640Z,7.50
2018-03-23T22:35:01.890Z,7.50
2018-03-23T22:37:29.358Z,7.50
2018-03-23T22:39:56.864Z,7.50
2018-03-23T22:42:24.343Z,7.50
2018-03-23T22:44:51.803Z,7.50
2018-03-23T22:47:19.287Z,7.50
2018-03-23T22:49:46.746Z,7.50
2018-03-23T22:52:14.216Z,7.50
2018-03-23T22:54:42.458Z,7.50
2018-03-23T22:57:09.932Z,7.50
2018-03-23T22:59:37.401Z,7.50
2018-03-23T23:02:04.882Z,7.50
2018-03-23T23:04:32.375Z,7.50
2018-03-23T23:06:59.856Z,7.50
2018-03-23T23:09:27.319Z,7.50
2018-03-23T23:11:54.787Z,7.50
2018-03-23T23:14:23.015Z,7.50
2018-03-23T23:16:50.509Z,7.50
2018-03-23T23:19:17.967Z,7.50
2018-03-23T23:21:45.459Z,7.40
2018-03-23T23:24:12.937Z,7.40
2018-03-23T23:26:40.411Z,7.40
2018-03-23T23:29:07.880Z,7.40
2018-03-23T23:31:35.340Z,7.40
2018-03-23T23:34:02.815Z,7.40
2018-03-23T23:36:31.064Z,7.40
2018-03-23T23:38:58.543Z,7.40
2018-03-23T23:41:26.008Z,7.40
2018-03-23T23:43:53.485Z,7.40
2018-03-23T23:46:20.952Z,7.40
2018-03-23T23:48:48.419Z,7.40
2018-03-23T23:51:15.955Z,7.40
2018-03-23T23:53:43.685Z,7.40
2018-03-23T23:56:11.163Z,7.40
2018-03-23T23:58:39.393Z,7.40
